Historyczne dane pomiarowe

Dodano dane terminowe – wersja testowa.

Dane z okresu 1951-2019

Wersja bazy: 1.34 [2019-03-16, lista zmian], aktualizacja planowana na 2019-04-15

Dane meteo z obszaru Polski uzyskane na podstawie danych udostępnionych przez Instytut Meteorologii i Gospodarki Wodnej – Państwowy Instytut Badawczy.

 

Wybierz Datę:    

       

TemperaturaWilgotnośćZachmurzenieWiatrCiśnienieWidzialnośćZjawiska
 Data    tng td wb rh cc ccl cl cm ch dir g1 g2 mslp ppp      
1999-07-24 00:00:00 2.8--- 2.8 2.8100wxwx8wx--- 801.6 1.0---wxw1
1999-07-24 01:00:00 2.8--- 2.8 2.8100wxwx8wx--- 801.5----wxw1
1999-07-24 02:00:00 2.6--- 2.6 2.6100wxwx7wx--- 801.7----wxw1
1999-07-24 03:00:00 3.1--- 3.1 3.1100wxwx8wx--- 801.7----wxw1
1999-07-24 04:00:00 3.1--- 3.1 3.1100wxwx8wx--- 802.2----wxw1
1999-07-24 05:00:00 3.6--- 3.6 3.6100wxwx6wx--- 802.7----wxw1
1999-07-24 06:00:00 3.8--- 3.8 3.8100wxwx6wx--- 803.3 0.1---wxw1
1999-07-24 07:00:00 3.9--- 3.9 3.9100wxwx5wx--- 803.8----wxw1
1999-07-24 08:00:00 3.9--- 3.9 3.9100wxwx5wx--- 803.8----wxw1
1999-07-24 09:00:00 4.5--- 4.5 4.5100wxwx4wx--- 804.4----wxw1
1999-07-24 10:00:00 5.3--- 5.3 5.3100wxwx4wx--- 804.6----wxw1
1999-07-24 11:00:00 5.5--- 5.5 5.5100wxwx3wx--- 804.7----wxw1
1999-07-24 12:00:00 6.1--- 6.1 6.1100wxwx3wx--- 805.0 0.0---wxw1
1999-07-24 13:00:00 6.4--- 6.4 6.4100wxwx2wx--- 805.2----wxw1
1999-07-24 14:00:00 5.1--- 5.1 5.1100wxwx3wx--- 805.3----wxw1
1999-07-24 15:00:00 5.0--- 5.0 5.0100wxwx3wx--- 805.5----wxw1
1999-07-24 16:00:00 5.1--- 5.1 5.1100wxwx2wx--- 805.6----wxw1
1999-07-24 17:00:00 5.3--- 5.3 5.3100wxwx2wx--- 805.7----wxw1
1999-07-24 18:00:00 5.4--- 5.4 5.4100wxwxwx2wx--- 805.7 0.0---wxw1
1999-07-24 19:00:00 5.4--- 5.4 5.4100wxwxwx4wx--- 805.9----wxw1
1999-07-24 20:00:00 5.3--- 4.3 4.994wxwxwxwxwx4wx--- 806.1----wx
1999-07-24 21:00:00 5.3--- 4.8 5.197wxwxwxwxwx3wx--- 806.3----wxw1
1999-07-24 22:00:00 5.2--- 4.5 4.995wxwxwx0wx--- 806.5----wx
1999-07-24 23:00:00 5.2--- 4.0 4.792wxwxwx2wx--- 806.2----wx

 

Źródłem pochodzenia danych jest Instytut Meteorologii i Gospodarki Wodnej – Państwowy Instytut Badawczy. Dane Instytutu Meteorologii i Gospodarki Wodnej – Państwowego Instytutu Badawczego zostały przetworzone.

Dane źródłowe można odnaleźć na stronie https://dane.imgw.pl